首页
METAR-TAF:

METAR-TAF

机场 :

西雅圖-塔科馬國際機場

西雅圖 / 塔科马, 华盛顿, 美国

纬度: 47-26-41N, 经度: 122-18-49W, 海拔: 130米

当前天气观测

该预报发布于22分钟前的10:53 UTC
静风
温度 9°C
湿度 93%
气压 1015 hPa
能見度: 16.1公里
多云层高于4200英尺
阴天层高于8500英尺

METAR: KSEA 201053Z 00000KT 10SM BKN042 OVC085 09/08 A2998 RMK AO2 SLP159 T00940083

时间: 04:15 (11:15 UTC)

预报

该预报发布于2小时和19分钟前的08:56 UTC
预报有效从20日的 09点(UTC)到 21日的 12点(UTC)
风速7节,风向
能見度: 10公里
散云层高于1000英尺
阴天层高于4000英尺
附近有阵雨
短暂存在
从 20日的 09点(UTC)到 20日的 12点(UTC)
多云层高于1500英尺
小雨
从 20日的 1200点(UTC)
风速5节,风向北转东北
能見度: 10公里
多云层高于1500英尺
多云层高于4000英尺
附近有阵雨
从 20日的 1800点(UTC)
风速6节,风向
能見度: 10公里
散云层高于4000英尺
从 21日的 0800点(UTC)
风速6节,风向
能見度: 10公里
多云层高于2000英尺

TAF: KSEA 200856Z 2009/2112 01007KT P6SM VCSH SCT010 OVC040 TEMPO 2009/2012 -RA BKN015 FM201200 02005KT P6SM VCSH BKN015 BKN040 FM201800 36006KT P6SM SCT040 FM210800 18006KT P6SM BKN020

超过4000个机场的气象观测和天气预报(METAR&TAF报告)。

可查询的气象台以黄色和红色小点在地图上表示。

将鼠标移到小点上方,可查看气象台名称。

然后点击查看天气观测和预报。

如需切换地图:点击带黑十字的绿色按钮放大地图;点击带横线的绿色按钮缩小地图;或者点击绿色箭头查看邻近地区的地图。


METAR-TAF: